sensor_id;sensor_type;location;lat;lon;timestamp;P1;durP1;ratioP1;P2;durP2;ratioP2
52031;SDS011;38044;45.148;39.604;2023-04-01T00:00:51;9.65;;;6.20;;
52031;SDS011;38044;45.148;39.604;2023-04-01T00:03:18;6.75;;;5.53;;
52031;SDS011;38044;45.148;39.604;2023-04-01T00:05:45;8.82;;;6.05;;
52031;SDS011;38044;45.148;39.604;2023-04-01T00:08:11;7.47;;;5.18;;
52031;SDS011;38044;45.148;39.604;2023-04-01T00:10:37;6.53;;;5.30;;
52031;SDS011;38044;45.148;39.604;2023-04-01T00:13:02;7.68;;;4.85;;
52031;SDS011;38044;45.148;39.604;2023-04-01T00:15:28;6.70;;;4.47;;
52031;SDS011;38044;45.148;39.604;2023-04-01T00:17:54;6.65;;;4.25;;
52031;SDS011;38044;45.148;39.604;2023-04-01T00:20:20;6.10;;;4.35;;
52031;SDS011;38044;45.148;39.604;2023-04-01T00:22:46;9.45;;;5.22;;
52031;SDS011;38044;45.148;39.604;2023-04-01T00:25:12;6.35;;;5.30;;
52031;SDS011;38044;45.148;39.604;2023-04-01T00:27:38;9.50;;;6.20;;
52031;SDS011;38044;45.148;39.604;2023-04-01T00:30:05;10.18;;;6.18;;
52031;SDS011;38044;45.148;39.604;2023-04-01T00:32:31;7.80;;;6.15;;
52031;SDS011;38044;45.148;39.604;2023-04-01T00:34:57;11.00;;;7.60;;
52031;SDS011;38044;45.148;39.604;2023-04-01T00:37:25;10.35;;;8.25;;
52031;SDS011;38044;45.148;39.604;2023-04-01T00:39:51;12.68;;;8.85;;
52031;SDS011;38044;45.148;39.604;2023-04-01T00:42:17;17.02;;;11.02;;
52031;SDS011;38044;45.148;39.604;2023-04-01T00:44:45;15.88;;;10.15;;
52031;SDS011;38044;45.148;39.604;2023-04-01T00:47:21;14.65;;;11.20;;
52031;SDS011;38044;45.148;39.604;2023-04-01T00:49:49;15.93;;;11.32;;
52031;SDS011;38044;45.148;39.604;2023-04-01T00:52:19;16.80;;;11.52;;
52031;SDS011;38044;45.148;39.604;2023-04-01T00:54:49;20.30;;;12.98;;
52031;SDS011;38044;45.148;39.604;2023-04-01T00:57:21;20.63;;;14.18;;
52031;SDS011;38044;45.148;39.604;2023-04-01T00:59:54;23.88;;;15.32;;
52031;SDS011;38044;45.148;39.604;2023-04-01T01:02:21;24.83;;;15.30;;
52031;SDS011;38044;45.148;39.604;2023-04-01T01:04:47;27.60;;;16.38;;
52031;SDS011;38044;45.148;39.604;2023-04-01T01:07:21;26.10;;;15.43;;
52031;SDS011;38044;45.148;39.604;2023-04-01T01:10:15;31.05;;;17.60;;
52031;SDS011;38044;45.148;39.604;2023-04-01T01:12:54;28.98;;;17.13;;
52031;SDS011;38044;45.148;39.604;2023-04-01T01:18:09;33.13;;;19.38;;
52031;SDS011;38044;45.148;39.604;2023-04-01T01:21:06;37.05;;;19.48;;
52031;SDS011;38044;45.148;39.604;2023-04-01T01:35:03;39.70;;;22.95;;
52031;SDS011;38044;45.148;39.604;2023-04-01T01:37:48;42.33;;;23.05;;
52031;SDS011;38044;45.148;39.604;2023-04-01T01:40:19;43.55;;;23.52;;
52031;SDS011;38044;45.148;39.604;2023-04-01T01:42:50;43.70;;;25.80;;
52031;SDS011;38044;45.148;39.604;2023-04-01T01:47:46;47.67;;;24.27;;
52031;SDS011;38044;45.148;39.604;2023-04-01T01:50:15;48.15;;;25.95;;
52031;SDS011;38044;45.148;39.604;2023-04-01T01:52:42;48.10;;;28.25;;
52031;SDS011;38044;45.148;39.604;2023-04-01T01:55:27;51.15;;;29.15;;
52031;SDS011;38044;45.148;39.604;2023-04-01T02:00:55;50.38;;;31.92;;
52031;SDS011;38044;45.148;39.604;2023-04-01T02:03:24;59.35;;;33.90;;
52031;SDS011;38044;45.148;39.604;2023-04-01T02:05:53;59.83;;;34.97;;
52031;SDS011;38044;45.148;39.604;2023-04-01T02:08:24;55.92;;;35.80;;
52031;SDS011;38044;45.148;39.604;2023-04-01T02:11:00;63.70;;;37.17;;
52031;SDS011;38044;45.148;39.604;2023-04-01T02:13:41;57.17;;;36.15;;
52031;SDS011;38044;45.148;39.604;2023-04-01T02:16:31;57.88;;;36.60;;
52031;SDS011;38044;45.148;39.604;2023-04-01T02:18:59;64.80;;;38.45;;
52031;SDS011;38044;45.148;39.604;2023-04-01T02:21:32;59.50;;;37.83;;
52031;SDS011;38044;45.148;39.604;2023-04-01T02:24:00;63.30;;;38.45;;
52031;SDS011;38044;45.148;39.604;2023-04-01T02:26:29;61.40;;;38.47;;
52031;SDS011;38044;45.148;39.604;2023-04-01T02:28:55;62.58;;;38.50;;
52031;SDS011;38044;45.148;39.604;2023-04-01T02:31:24;62.17;;;37.28;;
52031;SDS011;38044;45.148;39.604;2023-04-01T02:33:51;58.22;;;36.47;;
52031;SDS011;38044;45.148;39.604;2023-04-01T02:36:17;64.35;;;37.88;;
52031;SDS011;38044;45.148;39.604;2023-04-01T02:38:44;55.40;;;36.00;;
52031;SDS011;38044;45.148;39.604;2023-04-01T02:41:11;61.90;;;37.72;;
52031;SDS011;38044;45.148;39.604;2023-04-01T02:43:38;56.05;;;37.40;;
52031;SDS011;38044;45.148;39.604;2023-04-01T02:46:03;58.10;;;37.33;;
52031;SDS011;38044;45.148;39.604;2023-04-01T02:48:29;61.22;;;37.85;;
52031;SDS011;38044;45.148;39.604;2023-04-01T02:50:55;65.65;;;39.30;;
52031;SDS011;38044;45.148;39.604;2023-04-01T02:53:21;65.85;;;39.58;;
52031;SDS011;38044;45.148;39.604;2023-04-01T02:55:47;69.18;;;41.92;;
52031;SDS011;38044;45.148;39.604;2023-04-01T02:58:15;74.85;;;42.42;;
52031;SDS011;38044;45.148;39.604;2023-04-01T03:00:42;75.47;;;44.13;;
52031;SDS011;38044;45.148;39.604;2023-04-01T03:03:08;76.70;;;43.25;;
52031;SDS011;38044;45.148;39.604;2023-04-01T03:05:34;83.28;;;45.33;;
52031;SDS011;38044;45.148;39.604;2023-04-01T03:08:00;83.57;;;48.47;;
52031;SDS011;38044;45.148;39.604;2023-04-01T03:10:27;89.25;;;49.65;;
52031;SDS011;38044;45.148;39.604;2023-04-01T03:12:53;92.50;;;49.33;;
52031;SDS011;38044;45.148;39.604;2023-04-01T03:15:19;89.78;;;48.90;;
52031;SDS011;38044;45.148;39.604;2023-04-01T03:17:45;88.90;;;47.75;;
52031;SDS011;38044;45.148;39.604;2023-04-01T03:20:12;83.93;;;46.38;;
52031;SDS011;38044;45.148;39.604;2023-04-01T03:22:38;88.43;;;48.88;;
52031;SDS011;38044;45.148;39.604;2023-04-01T03:25:04;82.57;;;44.33;;
52031;SDS011;38044;45.148;39.604;2023-04-01T03:27:32;76.07;;;41.63;;
52031;SDS011;38044;45.148;39.604;2023-04-01T03:30:00;78.53;;;41.63;;
52031;SDS011;38044;45.148;39.604;2023-04-01T03:32:27;77.20;;;40.08;;
52031;SDS011;38044;45.148;39.604;2023-04-01T03:34:52;76.60;;;40.20;;
52031;SDS011;38044;45.148;39.604;2023-04-01T03:37:18;70.28;;;37.28;;
52031;SDS011;38044;45.148;39.604;2023-04-01T03:39:44;62.60;;;35.65;;
52031;SDS011;38044;45.148;39.604;2023-04-01T03:42:10;65.03;;;34.40;;
52031;SDS011;38044;45.148;39.604;2023-04-01T03:44:37;61.00;;;32.33;;
52031;SDS011;38044;45.148;39.604;2023-04-01T03:47:02;52.50;;;30.60;;
52031;SDS011;38044;45.148;39.604;2023-04-01T03:49:28;60.33;;;31.23;;
52031;SDS011;38044;45.148;39.604;2023-04-01T03:51:54;49.88;;;28.73;;
52031;SDS011;38044;45.148;39.604;2023-04-01T03:54:20;56.63;;;29.35;;
52031;SDS011;38044;45.148;39.604;2023-04-01T03:56:46;61.00;;;27.40;;
52031;SDS011;38044;45.148;39.604;2023-04-01T03:59:12;56.05;;;27.02;;
52031;SDS011;38044;45.148;39.604;2023-04-01T04:01:38;50.75;;;25.55;;
52031;SDS011;38044;45.148;39.604;2023-04-01T04:04:04;47.13;;;23.90;;
52031;SDS011;38044;45.148;39.604;2023-04-01T04:06:30;45.25;;;21.08;;
52031;SDS011;38044;45.148;39.604;2023-04-01T04:08:57;44.13;;;20.40;;
52031;SDS011;38044;45.148;39.604;2023-04-01T04:11:23;40.17;;;20.13;;
52031;SDS011;38044;45.148;39.604;2023-04-01T04:13:49;39.25;;;20.35;;
52031;SDS011;38044;45.148;39.604;2023-04-01T04:16:16;47.50;;;21.50;;
52031;SDS011;38044;45.148;39.604;2023-04-01T04:18:42;41.28;;;21.05;;
52031;SDS011;38044;45.148;39.604;2023-04-01T04:21:11;43.20;;;21.65;;
52031;SDS011;38044;45.148;39.604;2023-04-01T04:23:38;47.50;;;23.48;;
52031;SDS011;38044;45.148;39.604;2023-04-01T04:26:05;46.60;;;24.45;;
52031;SDS011;38044;45.148;39.604;2023-04-01T04:28:32;52.40;;;25.98;;
52031;SDS011;38044;45.148;39.604;2023-04-01T04:30:58;53.65;;;27.50;;
52031;SDS011;38044;45.148;39.604;2023-04-01T04:33:25;54.97;;;29.52;;
52031;SDS011;38044;45.148;39.604;2023-04-01T04:35:54;54.03;;;29.67;;
52031;SDS011;38044;45.148;39.604;2023-04-01T04:38:21;57.20;;;30.45;;
52031;SDS011;38044;45.148;39.604;2023-04-01T04:40:47;60.95;;;33.33;;
52031;SDS011;38044;45.148;39.604;2023-04-01T04:43:14;70.88;;;37.15;;
52031;SDS011;38044;45.148;39.604;2023-04-01T04:45:41;75.80;;;38.15;;
52031;SDS011;38044;45.148;39.604;2023-04-01T04:48:07;82.75;;;42.50;;
52031;SDS011;38044;45.148;39.604;2023-04-01T04:50:34;84.57;;;42.22;;
52031;SDS011;38044;45.148;39.604;2023-04-01T04:53:00;81.40;;;42.60;;
52031;SDS011;38044;45.148;39.604;2023-04-01T04:55:26;92.82;;;45.75;;
52031;SDS011;38044;45.148;39.604;2023-04-01T04:57:52;85.07;;;42.72;;
52031;SDS011;38044;45.148;39.604;2023-04-01T05:00:18;85.07;;;42.13;;
52031;SDS011;38044;45.148;39.604;2023-04-01T05:02:44;84.95;;;42.75;;
52031;SDS011;38044;45.148;39.604;2023-04-01T05:05:10;92.70;;;46.08;;
52031;SDS011;38044;45.148;39.604;2023-04-01T05:07:36;87.63;;;44.45;;
52031;SDS011;38044;45.148;39.604;2023-04-01T05:10:02;88.25;;;47.55;;
52031;SDS011;38044;45.148;39.604;2023-04-01T05:12:28;97.47;;;49.85;;
52031;SDS011;38044;45.148;39.604;2023-04-01T05:14:54;93.22;;;46.88;;
52031;SDS011;38044;45.148;39.604;2023-04-01T05:17:20;91.28;;;48.40;;
52031;SDS011;38044;45.148;39.604;2023-04-01T05:19:46;100.20;;;54.13;;
52031;SDS011;38044;45.148;39.604;2023-04-01T05:22:12;101.00;;;51.38;;
52031;SDS011;38044;45.148;39.604;2023-04-01T05:24:37;99.20;;;53.47;;
52031;SDS011;38044;45.148;39.604;2023-04-01T05:27:03;130.52;;;56.55;;
52031;SDS011;38044;45.148;39.604;2023-04-01T05:29:29;98.28;;;49.75;;
52031;SDS011;38044;45.148;39.604;2023-04-01T05:31:55;94.22;;;49.65;;
52031;SDS011;38044;45.148;39.604;2023-04-01T05:34:20;92.15;;;47.88;;
52031;SDS011;38044;45.148;39.604;2023-04-01T05:36:46;75.95;;;40.63;;
52031;SDS011;38044;45.148;39.604;2023-04-01T05:39:12;63.55;;;33.70;;
52031;SDS011;38044;45.148;39.604;2023-04-01T05:41:38;59.95;;;31.35;;
52031;SDS011;38044;45.148;39.604;2023-04-01T05:44:05;50.30;;;26.73;;
52031;SDS011;38044;45.148;39.604;2023-04-01T05:46:31;41.03;;;20.48;;
52031;SDS011;38044;45.148;39.604;2023-04-01T05:48:57;32.72;;;19.98;;
52031;SDS011;38044;45.148;39.604;2023-04-01T05:51:23;31.02;;;16.33;;
52031;SDS011;38044;45.148;39.604;2023-04-01T05:53:49;36.60;;;15.00;;
52031;SDS011;38044;45.148;39.604;2023-04-01T05:56:15;20.70;;;12.90;;
52031;SDS011;38044;45.148;39.604;2023-04-01T05:58:42;15.57;;;8.75;;
52031;SDS011;38044;45.148;39.604;2023-04-01T06:01:13;11.13;;;6.40;;
52031;SDS011;38044;45.148;39.604;2023-04-01T06:03:40;7.70;;;5.18;;
52031;SDS011;38044;45.148;39.604;2023-04-01T06:06:15;10.63;;;5.50;;
52031;SDS011;38044;45.148;39.604;2023-04-01T06:08:49;8.65;;;4.65;;
52031;SDS011;38044;45.148;39.604;2023-04-01T06:11:19;11.63;;;5.32;;
52031;SDS011;38044;45.148;39.604;2023-04-01T06:22:03;8.27;;;4.70;;
52031;SDS011;38044;45.148;39.604;2023-04-01T06:30:24;17.52;;;6.85;;
52031;SDS011;38044;45.148;39.604;2023-04-01T06:36:06;14.32;;;8.05;;
52031;SDS011;38044;45.148;39.604;2023-04-01T06:39:18;15.85;;;8.90;;
52031;SDS011;38044;45.148;39.604;2023-04-01T06:55:23;14.02;;;6.82;;
52031;SDS011;38044;45.148;39.604;2023-04-01T06:57:58;10.98;;;6.40;;
52031;SDS011;38044;45.148;39.604;2023-04-01T07:00:30;9.98;;;4.85;;
52031;SDS011;38044;45.148;39.604;2023-04-01T07:03:20;17.00;;;5.85;;
52031;SDS011;38044;45.148;39.604;2023-04-01T07:05:47;11.00;;;5.40;;
52031;SDS011;38044;45.148;39.604;2023-04-01T07:08:15;31.95;;;5.10;;
52031;SDS011;38044;45.148;39.604;2023-04-01T07:10:47;6.37;;;3.20;;
52031;SDS011;38044;45.148;39.604;2023-04-01T07:13:21;7.30;;;4.22;;
52031;SDS011;38044;45.148;39.604;2023-04-01T07:15:58;9.73;;;4.30;;
52031;SDS011;38044;45.148;39.604;2023-04-01T07:19:00;7.05;;;3.95;;
52031;SDS011;38044;45.148;39.604;2023-04-01T07:21:40;7.63;;;3.10;;
52031;SDS011;38044;45.148;39.604;2023-04-01T07:24:17;7.70;;;2.90;;
52031;SDS011;38044;45.148;39.604;2023-04-01T07:26:52;15.40;;;3.20;;
52031;SDS011;38044;45.148;39.604;2023-04-01T07:29:20;5.35;;;2.25;;
52031;SDS011;38044;45.148;39.604;2023-04-01T07:31:54;12.68;;;2.75;;
52031;SDS011;38044;45.148;39.604;2023-04-01T07:37:18;4.32;;;2.63;;
52031;SDS011;38044;45.148;39.604;2023-04-01T07:50:44;12.77;;;3.28;;
52031;SDS011;38044;45.148;39.604;2023-04-01T07:56:05;5.32;;;2.88;;
52031;SDS011;38044;45.148;39.604;2023-04-01T07:59:19;5.63;;;2.40;;
52031;SDS011;38044;45.148;39.604;2023-04-01T08:07:08;6.68;;;2.40;;
52031;SDS011;38044;45.148;39.604;2023-04-01T08:15:13;7.55;;;2.63;;
52031;SDS011;38044;45.148;39.604;2023-04-01T08:21:07;5.78;;;3.00;;
52031;SDS011;38044;45.148;39.604;2023-04-01T08:23:36;4.25;;;2.53;;
52031;SDS011;38044;45.148;39.604;2023-04-01T08:29:18;4.63;;;2.72;;
52031;SDS011;38044;45.148;39.604;2023-04-01T08:31:53;5.45;;;2.30;;
52031;SDS011;38044;45.148;39.604;2023-04-01T08:34:32;4.95;;;2.55;;
52031;SDS011;38044;45.148;39.604;2023-04-01T08:37:07;3.90;;;2.75;;
52031;SDS011;38044;45.148;39.604;2023-04-01T08:39:56;3.58;;;2.88;;
52031;SDS011;38044;45.148;39.604;2023-04-01T08:43:00;3.83;;;2.38;;
52031;SDS011;38044;45.148;39.604;2023-04-01T09:11:04;2.90;;;2.00;;
52031;SDS011;38044;45.148;39.604;2023-04-01T09:22:10;4.65;;;2.67;;
52031;SDS011;38044;45.148;39.604;2023-04-01T09:24:56;4.55;;;2.20;;
52031;SDS011;38044;45.148;39.604;2023-04-01T09:31:17;7.00;;;2.97;;
52031;SDS011;38044;45.148;39.604;2023-04-01T09:39:19;8.18;;;2.92;;
52031;SDS011;38044;45.148;39.604;2023-04-01T09:42:02;6.57;;;2.30;;
52031;SDS011;38044;45.148;39.604;2023-04-01T09:53:39;6.28;;;2.42;;
52031;SDS011;38044;45.148;39.604;2023-04-01T09:56:19;3.85;;;2.10;;
52031;SDS011;38044;45.148;39.604;2023-04-01T10:10:29;2.35;;;1.30;;
52031;SDS011;38044;45.148;39.604;2023-04-01T10:13:24;1.83;;;0.95;;
52031;SDS011;38044;45.148;39.604;2023-04-01T10:28:19;3.90;;;0.93;;
52031;SDS011;38044;45.148;39.604;2023-04-01T10:51:25;0.80;;;0.60;;
52031;SDS011;38044;45.148;39.604;2023-04-01T10:54:08;66.15;;;5.82;;
52031;SDS011;38044;45.148;39.604;2023-04-01T10:59:52;1.50;;;0.50;;
52031;SDS011;38044;45.148;39.604;2023-04-01T11:05:58;2.00;;;0.70;;
52031;SDS011;38044;45.148;39.604;2023-04-01T11:19:50;1.42;;;0.73;;
52031;SDS011;38044;45.148;39.604;2023-04-01T11:22:52;1.58;;;1.08;;
52031;SDS011;38044;45.148;39.604;2023-04-01T11:25:56;3.83;;;0.80;;
52031;SDS011;38044;45.148;39.604;2023-04-01T11:37:06;0.98;;;0.65;;
52031;SDS011;38044;45.148;39.604;2023-04-01T11:42:34;1.55;;;0.70;;
52031;SDS011;38044;45.148;39.604;2023-04-01T11:45:12;2.53;;;0.90;;
52031;SDS011;38044;45.148;39.604;2023-04-01T11:53:18;2.08;;;0.80;;
52031;SDS011;38044;45.148;39.604;2023-04-01T11:58:31;1.60;;;0.60;;
52031;SDS011;38044;45.148;39.604;2023-04-01T12:01:30;2.73;;;0.93;;
52031;SDS011;38044;45.148;39.604;2023-04-01T12:10:01;0.90;;;0.60;;
52031;SDS011;38044;45.148;39.604;2023-04-01T12:12:57;1.70;;;0.63;;
52031;SDS011;38044;45.148;39.604;2023-04-01T12:27:14;2.83;;;1.83;;
52031;SDS011;38044;45.148;39.604;2023-04-01T12:41:56;0.98;;;0.75;;
52031;SDS011;38044;45.148;39.604;2023-04-01T12:47:32;1.27;;;0.88;;
52031;SDS011;38044;45.148;39.604;2023-04-01T12:53:53;1.38;;;0.85;;
52031;SDS011;38044;45.148;39.604;2023-04-01T12:56:44;2.15;;;0.90;;
52031;SDS011;38044;45.148;39.604;2023-04-01T13:02:11;1.70;;;1.27;;
52031;SDS011;38044;45.148;39.604;2023-04-01T13:07:18;0.93;;;0.77;;
52031;SDS011;38044;45.148;39.604;2023-04-01T13:15:21;1.65;;;1.00;;
52031;SDS011;38044;45.148;39.604;2023-04-01T13:20:43;3.58;;;0.90;;
52031;SDS011;38044;45.148;39.604;2023-04-01T13:26:13;3.10;;;1.30;;
52031;SDS011;38044;45.148;39.604;2023-04-01T13:28:47;2.53;;;1.83;;
52031;SDS011;38044;45.148;39.604;2023-04-01T13:52:59;3.05;;;1.52;;
52031;SDS011;38044;45.148;39.604;2023-04-01T13:58:58;3.50;;;1.13;;
52031;SDS011;38044;45.148;39.604;2023-04-01T14:15:25;2.67;;;1.40;;
52031;SDS011;38044;45.148;39.604;2023-04-01T14:18:01;6.53;;;1.02;;
52031;SDS011;38044;45.148;39.604;2023-04-01T14:26:10;1.63;;;0.80;;
52031;SDS011;38044;45.148;39.604;2023-04-01T14:34:31;4.30;;;2.58;;
52031;SDS011;38044;45.148;39.604;2023-04-01T14:40:16;3.22;;;1.30;;
52031;SDS011;38044;45.148;39.604;2023-04-01T14:51:15;1.67;;;1.25;;
52031;SDS011;38044;45.148;39.604;2023-04-01T14:53:58;6.18;;;1.40;;
52031;SDS011;38044;45.148;39.604;2023-04-01T14:56:37;3.95;;;1.30;;
52031;SDS011;38044;45.148;39.604;2023-04-01T14:59:15;2.55;;;1.30;;
52031;SDS011;38044;45.148;39.604;2023-04-01T15:02:00;4.20;;;1.75;;
52031;SDS011;38044;45.148;39.604;2023-04-01T15:04:54;3.10;;;1.15;;
52031;SDS011;38044;45.148;39.604;2023-04-01T15:21:45;12.32;;;2.42;;
52031;SDS011;38044;45.148;39.604;2023-04-01T15:24:49;5.38;;;2.20;;
52031;SDS011;38044;45.148;39.604;2023-04-01T15:28:00;42.63;;;5.00;;
52031;SDS011;38044;45.148;39.604;2023-04-01T15:33:18;14.52;;;3.05;;
52031;SDS011;38044;45.148;39.604;2023-04-01T15:36:08;15.40;;;2.70;;
52031;SDS011;38044;45.148;39.604;2023-04-01T15:41:43;10.05;;;2.80;;
52031;SDS011;38044;45.148;39.604;2023-04-01T15:47:37;9.85;;;3.03;;
52031;SDS011;38044;45.148;39.604;2023-04-01T15:55:49;13.27;;;4.75;;
52031;SDS011;38044;45.148;39.604;2023-04-01T15:58:46;18.38;;;6.20;;
52031;SDS011;38044;45.148;39.604;2023-04-01T16:04:17;14.43;;;7.75;;
52031;SDS011;38044;45.148;39.604;2023-04-01T16:06:59;19.30;;;8.32;;
52031;SDS011;38044;45.148;39.604;2023-04-01T16:18:03;55.33;;;24.55;;
52031;SDS011;38044;45.148;39.604;2023-04-01T16:20:44;47.65;;;21.58;;
52031;SDS011;38044;45.148;39.604;2023-04-01T16:23:35;47.72;;;21.33;;
52031;SDS011;38044;45.148;39.604;2023-04-01T16:29:02;148.10;;;57.28;;
52031;SDS011;38044;45.148;39.604;2023-04-01T16:34:10;111.65;;;52.08;;
52031;SDS011;38044;45.148;39.604;2023-04-01T16:36:47;123.97;;;56.17;;
52031;SDS011;38044;45.148;39.604;2023-04-01T16:41:57;282.70;;;133.43;;
52031;SDS011;38044;45.148;39.604;2023-04-01T16:47:35;293.25;;;142.63;;
52031;SDS011;38044;45.148;39.604;2023-04-01T16:50:18;242.18;;;118.80;;
52031;SDS011;38044;45.148;39.604;2023-04-01T16:52:54;228.88;;;104.95;;
52031;SDS011;38044;45.148;39.604;2023-04-01T17:01:00;184.30;;;81.95;;
52031;SDS011;38044;45.148;39.604;2023-04-01T17:03:40;184.13;;;79.20;;
52031;SDS011;38044;45.148;39.604;2023-04-01T17:06:14;189.13;;;81.18;;
52031;SDS011;38044;45.148;39.604;2023-04-01T17:11:27;199.95;;;85.75;;
52031;SDS011;38044;45.148;39.604;2023-04-01T17:16:59;205.32;;;88.93;;
52031;SDS011;38044;45.148;39.604;2023-04-01T17:27:44;264.92;;;113.88;;
52031;SDS011;38044;45.148;39.604;2023-04-01T17:38:59;152.40;;;58.00;;
52031;SDS011;38044;45.148;39.604;2023-04-01T17:41:51;153.80;;;56.47;;
52031;SDS011;38044;45.148;39.604;2023-04-01T17:58:45;197.85;;;87.57;;
52031;SDS011;38044;45.148;39.604;2023-04-01T18:10:25;131.57;;;54.90;;
52031;SDS011;38044;45.148;39.604;2023-04-01T18:13:05;109.47;;;45.55;;
52031;SDS011;38044;45.148;39.604;2023-04-01T18:24:14;117.47;;;45.92;;
52031;SDS011;38044;45.148;39.604;2023-04-01T18:27:03;96.03;;;40.60;;
52031;SDS011;38044;45.148;39.604;2023-04-01T18:29:37;83.30;;;34.90;;
52031;SDS011;38044;45.148;39.604;2023-04-01T18:32:13;68.55;;;30.95;;
52031;SDS011;38044;45.148;39.604;2023-04-01T18:40:35;74.35;;;33.15;;
52031;SDS011;38044;45.148;39.604;2023-04-01T18:45:46;76.45;;;32.95;;
52031;SDS011;38044;45.148;39.604;2023-04-01T18:48:40;78.45;;;34.13;;
52031;SDS011;38044;45.148;39.604;2023-04-01T18:51:14;80.80;;;35.35;;
52031;SDS011;38044;45.148;39.604;2023-04-01T18:54:05;75.18;;;31.83;;
52031;SDS011;38044;45.148;39.604;2023-04-01T18:56:36;46.33;;;21.85;;
52031;SDS011;38044;45.148;39.604;2023-04-01T19:01:43;51.38;;;23.63;;
52031;SDS011;38044;45.148;39.604;2023-04-01T19:04:41;52.70;;;24.65;;
52031;SDS011;38044;45.148;39.604;2023-04-01T19:10:16;58.83;;;26.40;;
52031;SDS011;38044;45.148;39.604;2023-04-01T19:12:57;44.03;;;21.02;;
52031;SDS011;38044;45.148;39.604;2023-04-01T19:15:52;36.67;;;19.23;;
52031;SDS011;38044;45.148;39.604;2023-04-01T19:21:33;50.13;;;23.67;;
52031;SDS011;38044;45.148;39.604;2023-04-01T19:24:19;55.35;;;25.02;;
52031;SDS011;38044;45.148;39.604;2023-04-01T19:26:53;93.22;;;31.10;;
52031;SDS011;38044;45.148;39.604;2023-04-01T19:29:34;81.07;;;30.90;;
52031;SDS011;38044;45.148;39.604;2023-04-01T19:37:39;79.07;;;32.05;;
52031;SDS011;38044;45.148;39.604;2023-04-01T19:51:35;57.55;;;24.35;;
52031;SDS011;38044;45.148;39.604;2023-04-01T19:59:58;61.75;;;24.75;;
52031;SDS011;38044;45.148;39.604;2023-04-01T20:07:54;48.75;;;20.23;;
52031;SDS011;38044;45.148;39.604;2023-04-01T20:18:24;134.23;;;46.75;;
52031;SDS011;38044;45.148;39.604;2023-04-01T20:21:00;185.20;;;64.50;;
52031;SDS011;38044;45.148;39.604;2023-04-01T20:26:23;113.20;;;47.90;;
52031;SDS011;38044;45.148;39.604;2023-04-01T20:39:58;29.02;;;13.60;;
52031;SDS011;38044;45.148;39.604;2023-04-01T20:58:45;55.00;;;20.17;;
52031;SDS011;38044;45.148;39.604;2023-04-01T21:01:40;39.97;;;19.25;;
52031;SDS011;38044;45.148;39.604;2023-04-01T21:04:39;39.72;;;18.48;;
52031;SDS011;38044;45.148;39.604;2023-04-01T21:07:31;37.47;;;18.90;;
52031;SDS011;38044;45.148;39.604;2023-04-01T21:10:11;34.58;;;18.00;;
52031;SDS011;38044;45.148;39.604;2023-04-01T21:13:01;35.38;;;18.60;;
52031;SDS011;38044;45.148;39.604;2023-04-01T21:15:48;27.35;;;16.33;;
52031;SDS011;38044;45.148;39.604;2023-04-01T21:29:59;19.90;;;11.85;;
52031;SDS011;38044;45.148;39.604;2023-04-01T21:32:58;27.45;;;13.20;;
52031;SDS011;38044;45.148;39.604;2023-04-01T21:35:50;24.08;;;11.85;;
52031;SDS011;38044;45.148;39.604;2023-04-01T21:44:38;22.90;;;11.38;;
52031;SDS011;38044;45.148;39.604;2023-04-01T21:47:08;21.08;;;11.13;;
52031;SDS011;38044;45.148;39.604;2023-04-01T21:50:04;20.80;;;11.10;;
52031;SDS011;38044;45.148;39.604;2023-04-01T22:07:20;19.30;;;10.25;;
52031;SDS011;38044;45.148;39.604;2023-04-01T22:12:38;16.83;;;10.07;;
52031;SDS011;38044;45.148;39.604;2023-04-01T22:15:14;18.65;;;10.35;;
52031;SDS011;38044;45.148;39.604;2023-04-01T22:23:26;25.05;;;11.88;;
52031;SDS011;38044;45.148;39.604;2023-04-01T22:26:05;19.13;;;10.57;;
52031;SDS011;38044;45.148;39.604;2023-04-01T22:28:38;17.65;;;9.48;;
52031;SDS011;38044;45.148;39.604;2023-04-01T22:31:05;18.05;;;9.20;;
52031;SDS011;38044;45.148;39.604;2023-04-01T22:33:50;16.05;;;9.00;;
52031;SDS011;38044;45.148;39.604;2023-04-01T22:36:37;18.27;;;8.95;;
52031;SDS011;38044;45.148;39.604;2023-04-01T22:50:34;17.15;;;9.63;;
52031;SDS011;38044;45.148;39.604;2023-04-01T22:52:50;19.75;;;10.45;;
52031;SDS011;38044;45.148;39.604;2023-04-01T22:55:27;21.00;;;9.73;;
52031;SDS011;38044;45.148;39.604;2023-04-01T23:00:39;19.13;;;9.68;;
52031;SDS011;38044;45.148;39.604;2023-04-01T23:06:03;18.92;;;10.27;;
52031;SDS011;38044;45.148;39.604;2023-04-01T23:11:06;17.15;;;9.30;;
52031;SDS011;38044;45.148;39.604;2023-04-01T23:13:36;15.93;;;9.90;;
52031;SDS011;38044;45.148;39.604;2023-04-01T23:16:07;14.07;;;9.50;;
52031;SDS011;38044;45.148;39.604;2023-04-01T23:18:52;15.07;;;9.15;;
52031;SDS011;38044;45.148;39.604;2023-04-01T23:24:33;14.10;;;8.40;;
52031;SDS011;38044;45.148;39.604;2023-04-01T23:27:08;15.32;;;8.90;;
52031;SDS011;38044;45.148;39.604;2023-04-01T23:29:48;11.75;;;7.60;;
52031;SDS011;38044;45.148;39.604;2023-04-01T23:32:15;14.30;;;7.03;;
52031;SDS011;38044;45.148;39.604;2023-04-01T23:34:54;10.80;;;6.60;;
52031;SDS011;38044;45.148;39.604;2023-04-01T23:37:22;11.35;;;6.35;;
52031;SDS011;38044;45.148;39.604;2023-04-01T23:39:50;9.73;;;5.80;;
52031;SDS011;38044;45.148;39.604;2023-04-01T23:42:25;9.48;;;6.53;;
52031;SDS011;38044;45.148;39.604;2023-04-01T23:45:00;11.13;;;6.05;;
52031;SDS011;38044;45.148;39.604;2023-04-01T23:47:35;14.73;;;6.47;;
52031;SDS011;38044;45.148;39.604;2023-04-01T23:50:37;8.77;;;5.53;;
52031;SDS011;38044;45.148;39.604;2023-04-01T23:55:30;11.43;;;6.65;;
52031;SDS011;38044;45.148;39.604;2023-04-01T23:58:13;13.38;;;7.72;;
